• Join FlightAware (Why Join?)
  • Login
  • US Flag 
10:42AM EDT


 

Airport Tracker/Info


-or-


 

Live Flight TrackerFlight Track Log ✈ N81321 ✈ 14-Dec-2013 ✈ KXFL - KFXE

Flight Track Log - Related Links

Times and Time Zones

All times are in EST time to prevent confusion due to time zone crossing. See the N81321 flight status page for this flight to view local times or setup timezone preferences in your user account.

Time Position Orientation Groundspeed Altitude Reporting Facility
EST Latitude Longitude Course Direction KTS MPH feet Rate Location/Type
03:38PM 29.4661 -81.1942 99° East 75 86 500  Level Jacksonville Center
03:39PM 29.4639 -81.1775 99° East 73 84 900 480 Climbing Jacksonville Center
03:40PM 29.4533 -81.1683 143° Southeast 56 64 1,400 480 Climbing Jacksonville Center
03:41PM 29.4383 -81.1589 151° Southeast 53 61 1,900 480 Climbing Jacksonville Center
03:42PM 29.4239 -81.1544 165° South 57 66 2,400 420 Climbing Jacksonville Center
03:43PM 29.4092 -81.1500 165° South 56 64 2,800 420 Climbing Jacksonville Center
03:44PM 29.3922 -81.1456 167° South 52 60 3,300 420 Climbing Jacksonville Center
03:45PM 29.3797 -81.1408 162° South 49 56 3,700 360 Climbing Jacksonville Center
03:46PM 29.3650 -81.1364 165° South 49 56 4,100 240 Climbing Jacksonville Center
03:47PM 29.3506 -81.1319 165° South 69 79 4,200 -60 Climbing Jacksonville Center
03:48PM 29.3189 -81.1231 166° South 107 123 4,000 -120 Descending Jacksonville Center
03:49PM 29.2917 -81.1117 160° South 97 112 4,000  Level Jacksonville Center
03:50PM 29.2664 -81.1025 162° South 91 105 4,000 -60 Level Jacksonville Center
03:51PM 29.2433 -81.0958 166° South 90 104 3,900  Descending Jacksonville Center
03:52PM 29.2244 -81.0842 152° Southeast 79 91 4,000 60 Climbing Jacksonville Center
03:53PM 29.1994 -81.0753 163° South 83 96 4,100  Climbing Jacksonville Center
03:54PM 29.1764 -81.0683 165° South 87 100 4,100  Level Jacksonville Center
03:55PM 29.1531 -81.0569 157° South 91 105 4,100  Level Jacksonville Center
03:56PM 29.1281 -81.0456 158° South 90 104 4,100  Level Jacksonville Center
03:57PM 29.1028 -81.0367 163° South 90 104 4,100  Level Jacksonville Center
03:58PM 29.0797 -81.0275 161° South 97 112 4,100  Level Jacksonville Center
03:59PM 29.0544 -81.0161 159° South 94 108 4,200  Climbing Jacksonville Center
04:00PM 29.0292 -81.0069 162° South 95 109 4,100 -60 Descending Jacksonville Center
04:01PM 29.0042 -80.9956 158° South 95 109 4,100  Level Jacksonville Center
04:03PM 28.9667 -80.9833 164° South 95 109 4,100  Level Orlando TRACON
04:04PM 28.9500 -80.9667 139° Southeast 90 104 4,100  Level Orlando TRACON
04:05PM 28.9167 -80.9667 180° South 93 107 4,100  Level Orlando TRACON
04:06PM 28.9000 -80.9500 139° Southeast 96 110 4,100  Level Orlando TRACON
04:07PM 28.8667 -80.9333 156° South 92 106 4,100  Level Orlando TRACON
04:08PM 28.8500 -80.9333 180° South 91 105 4,100 -60 Level Orlando TRACON
04:09PM 28.8167 -80.9167 156° South 94 108 4,000 -60 Descending Orlando TRACON
04:10PM 28.8000 -80.9167 180° South 93 107 4,000  Level Orlando TRACON
04:11PM 28.7667 -80.9000 156° South 93 107 4,000  Level Orlando TRACON
04:12PM 28.7500 -80.8833 139° Southeast 90 104 4,100  Climbing Orlando TRACON
04:13PM 28.7167 -80.8833 180° South 90 104 4,100  Level Orlando TRACON
04:14PM 28.7000 -80.8667 139° Southeast 92 106 4,100 -60 Level Orlando TRACON
04:15PM 28.6833 -80.8667 180° South 100 115 4,000  Descending Orlando TRACON
04:16PM 28.6500 -80.8500 156° South 97 112 4,100  Climbing Orlando TRACON
04:17PM 28.6167 -80.8500 180° South 97 112 4,000  Descending Orlando TRACON
04:18PM 28.6000 -80.8333 139° Southeast 96 110 4,100  Climbing Orlando TRACON
04:19PM 28.5667 -80.8167 156° South 98 113 4,100  Level Orlando TRACON
04:20PM 28.5500 -80.8167 180° South 94 108 4,100  Level Orlando TRACON
04:21PM 28.5167 -80.8000 156° South 97 112 4,100 -60 Level Orlando TRACON
04:22PM 28.4833 -80.7833 156° South 102 117 4,000 -60 Descending Orlando TRACON
04:23PM 28.4667 -80.7833 180° South 98 113 4,000  Level Orlando TRACON
04:24PM 28.4333 -80.7667 156° South 93 107 4,000  Level Orlando TRACON
04:25PM 28.4167 -80.7667 180° South 92 106 4,100  Climbing Orlando TRACON
04:26PM 28.4000 -80.7500 139° Southeast 94 108 4,100  Level Orlando TRACON
04:27PM 28.3667 -80.7333 156° South 98 113 4,100 -60 Level Orlando TRACON
04:28PM 28.3333 -80.7333 180° South 99 114 4,000  Descending Orlando TRACON
04:29PM 28.3167 -80.7167 139° Southeast 97 112 4,100  Climbing Orlando TRACON
04:30PM 28.2833 -80.7167 180° South 96 110 4,100  Level Orlando TRACON
04:31PM 28.2667 -80.7000 139° Southeast 98 113 4,100  Level Orlando TRACON
04:32PM 28.2333 -80.6833 156° South 96 110 4,100  Level Orlando TRACON
04:33PM 28.2167 -80.6833 180° South 98 113 4,100 -60 Level Orlando TRACON
04:34PM 28.1833 -80.6667 156° South 99 114 4,000 -60 Descending Orlando TRACON
04:35PM 28.1667 -80.6500 139° Southeast 98 113 4,000  Level Orlando TRACON
04:36PM 28.1333 -80.6500 180° South 95 109 4,000  Level Orlando TRACON
04:37PM 28.1167 -80.6333 139° Southeast 90 104 4,000  Level Orlando TRACON
04:38PM 28.0833 -80.6333 180° South 90 104 4,100  Climbing Orlando TRACON
04:39PM 28.0667 -80.6333 180° South 91 105 4,100  Level Orlando TRACON
04:40PM 28.0333 -80.6333 180° South 95 109 4,100  Level Orlando TRACON
04:42PM 27.9900 -80.6425 191° South 94 108 4,100 -60 Level Miami Center
04:43PM 27.9647 -80.6439 183° South 89 102 4,000 -60 Descending Miami Center
04:44PM 27.9419 -80.6456 184° South 89 102 4,000  Level Miami Center
04:45PM 27.9167 -80.6469 183° South 89 102 4,000  Level Miami Center
04:46PM 27.8897 -80.6461 178° South 89 102 4,000  Level Miami Center
04:47PM 27.8603 -80.6500 187° South 94 108 4,000  Level Miami Center
04:48PM 27.8375 -80.6492 178° South 94 108 4,000  Level Miami Center
04:49PM 27.8122 -80.6506 183° South 99 114 4,000  Level Miami Center
04:50PM 27.7831 -80.6519 182° South 99 114 4,100  Climbing Miami Center
04:51PM 27.7558 -80.6533 183° South 104 120 4,100  Level Miami Center
04:52PM 27.7286 -80.6550 183° South 104 120 4,100  Level Miami Center
04:53PM 27.7036 -80.6542 178° South 104 120 4,100 -60 Level Miami Center
04:54PM 27.6764 -80.6556 183° South 104 120 4,000 -60 Descending Miami Center
04:55PM 27.6472 -80.6569 182° South 104 120 4,000  Level Miami Center
04:56PM 27.6200 -80.6583 183° South 99 114 4,000  Level Miami Center
04:57PM 27.5928 -80.6597 183° South 99 114 4,000  Level Miami Center
04:58PM 27.5700 -80.6614 184° South 104 120 4,000  Level Miami Center
04:59PM 27.5428 -80.6628 183° South 104 120 4,000  Level Miami Center
05:00PM 27.5114 -80.6617 178° South 104 120 4,000  Level Miami Center
05:01PM 27.4864 -80.6608 178° South 104 120 4,000  Level Miami Center
05:02PM 27.4592 -80.6647 187° South 104 120 4,100  Climbing Miami Center
05:03PM 27.4361 -80.6639 178° South 104 120 4,100  Level Miami Center
05:04PM 27.4111 -80.6678 188° South 104 120 4,100 -60 Level Miami Center
05:05PM 27.3797 -80.6667 178° South 104 120 4,000  Descending Miami Center
05:06PM 27.3525 -80.6683 183° South 104 120 4,100  Climbing Miami Center
05:07PM 27.3275 -80.6697 183° South 104 120 4,100  Level Miami Center
05:08PM 27.3025 -80.6711 183° South 104 120 4,100 -60 Level Miami Center
05:09PM 27.2731 -80.6725 182° South 104 120 4,000 -60 Descending Miami Center
05:10PM 27.2417 -80.6739 182° South 104 120 4,000  Level Miami Center
05:11PM 27.2167 -80.6753 183° South 104 120 4,000 -60 Level Miami Center
05:12PM 27.1875 -80.6767 182° South 104 120 3,900 -60 Descending Miami Center
05:13PM 27.1644 -80.6783 184° South 104 120 3,900  Level Miami Center
05:14PM 27.1372 -80.6775 178° South 104 120 4,000  Climbing Miami Center
05:15PM 27.1058 -80.6786 182° South 104 120 4,000  Level Miami Center
05:16PM 27.0808 -80.6803 183° South 104 120 4,000  Level Miami Center
05:17PM 27.0558 -80.6817 183° South 104 120 4,000 -60 Level Miami Center
05:37PM 26.5450 -80.4886 158° South 102 117 3,000 -60 Descending Miami Center
05:38PM 26.5478 -80.5747 158° South  Level FlightAware Approximate
05:38PM 26.5225 -80.4694 143° Southeast 105 121 3,000  Level Miami Center
05:39PM 26.5245 -80.5641 158° South  Level FlightAware Approximate
05:39PM 26.4981 -80.4456 139° Southeast 103 119 3,000  Level Miami Center
05:40PM 26.5012 -80.5535 158° South  Level FlightAware Approximate
05:40PM 26.4756 -80.4261 142° Southeast 101 116 3,100  Level Miami Center
05:41PM 26.4779 -80.5429 158° South  Level FlightAware Approximate
05:41PM 26.4550 -80.4069 140° Southeast 103 119 3,100  Level Miami Center
05:42PM 26.4546 -80.5323 158° South  Level FlightAware Approximate
05:42PM 26.4306 -80.3856 142° Southeast 106 122 3,000  Level Miami Center
05:43PM 26.4058 -80.3661 145° Southeast 105 121 3,000 -60 Level Miami Center
05:44PM 26.3856 -80.3447 137° Southeast 104 120 2,900  Descending Miami Center
05:45PM 26.3589 -80.3231 144° Southeast 104 120 3,000  Climbing Miami Center
05:46PM 26.3383 -80.3108 152° Southeast 105 121 2,900  Descending Miami Center
05:47PM 26.3128 -80.3264 209° Southwest 100 115 3,000  Climbing Miami Center
05:48PM 26.2917 -80.3442 217° Southwest 100 115 3,000  Level Miami Center
05:49PM 26.2681 -80.3619 214° Southwest 99 114 3,100  Climbing Miami Center
05:50PM 26.2428 -80.3775 209° Southwest 99 114 3,100 -60 Level Miami Center
05:51PM 26.2156 -80.3744 174° South 103 119 3,000 -60 Descending Miami Center
05:52PM 26.1886 -80.3644 162° South 110 127 3,000 -240 Level Miami Center
05:53PM 26.1811 -80.3294 103° East 109 125 2,600 -480 Descending Miami Center
05:54PM 26.1842 -80.2947 84° East 113 130 2,100 -600 Descending Miami Center
05:55PM 26.1869 -80.2647 84° East 101 116 1,500 -600 Descending Miami Center
05:56PM 26.1897 -80.2347 84° East 87 100 900 -480 Descending Miami Center
05:57PM 26.1944 -80.2069 79° East 82 94 500 -420 Descending Miami Center
05:59PM 26.1833 -80.1667 77° East  Level FlightAware Approximate
06:06PM 26.1973 -80.1707 77° East  Level Estimated